createdAt,value
2022-12-18T00:01:07.340Z,-6.27
2022-12-18T00:03:39.237Z,-6.36
2022-12-18T00:06:11.356Z,-6.41
2022-12-18T00:08:42.892Z,-6.38
2022-12-18T00:11:14.500Z,-6.55
2022-12-18T00:13:46.046Z,-6.48
2022-12-18T00:16:18.181Z,-6.53
2022-12-18T00:18:49.731Z,-6.56
2022-12-18T00:21:21.573Z,-6.53
2022-12-18T00:23:53.093Z,-6.77
2022-12-18T00:26:24.995Z,-6.60
2022-12-18T00:28:59.304Z,-6.53
2022-12-18T00:31:31.217Z,-6.44
2022-12-18T00:34:02.787Z,-6.36
2022-12-18T00:36:34.691Z,-6.44
2022-12-18T00:39:06.224Z,-6.34
2022-12-18T00:41:56.931Z,-6.32
2022-12-18T00:44:28.426Z,-6.50
2022-12-18T00:47:00.412Z,-6.67
2022-12-18T00:49:31.958Z,-6.75
2022-12-18T00:52:03.975Z,-6.69
2022-12-18T00:54:35.523Z,-6.54
2022-12-18T00:57:07.392Z,-6.60
2022-12-18T00:59:38.949Z,-6.45
2022-12-18T01:02:10.591Z,-6.45
2022-12-18T01:04:42.163Z,-6.43
2022-12-18T01:07:13.977Z,-6.33
2022-12-18T01:09:45.484Z,-6.42
2022-12-18T01:12:17.522Z,-6.48
2022-12-18T01:14:49.020Z,-6.36
2022-12-18T01:17:20.746Z,-6.37
2022-12-18T01:19:52.279Z,-6.37
2022-12-18T01:22:24.113Z,-6.40
2022-12-18T01:24:55.629Z,-6.57
2022-12-18T01:27:27.652Z,-6.60
2022-12-18T01:29:59.150Z,-6.60
2022-12-18T01:32:31.882Z,-6.60
2022-12-18T01:35:03.436Z,-6.58
2022-12-18T01:37:35.330Z,-6.54
2022-12-18T01:40:06.851Z,-6.59
2022-12-18T01:42:38.704Z,-6.70
2022-12-18T01:45:10.204Z,-6.70
2022-12-18T01:47:42.061Z,-6.80
2022-12-18T01:50:14.053Z,-6.66
2022-12-18T01:52:45.948Z,-6.71
2022-12-18T01:55:17.453Z,-6.74
2022-12-18T01:57:49.463Z,-6.87
2022-12-18T02:00:21.000Z,-7.09
2022-12-18T02:02:53.063Z,-7.12
2022-12-18T02:05:24.735Z,-7.06
2022-12-18T02:07:56.424Z,-6.97
2022-12-18T02:10:27.953Z,-6.99
2022-12-18T02:13:00.381Z,-7.10
2022-12-18T02:15:31.897Z,-7.05
2022-12-18T02:18:03.798Z,-7.14
2022-12-18T02:20:35.376Z,-7.09
2022-12-18T02:23:07.361Z,-7.01
2022-12-18T02:25:38.883Z,-7.00
2022-12-18T02:28:10.697Z,-6.84
2022-12-18T02:30:42.273Z,-7.03
2022-12-18T02:33:14.217Z,-7.05
2022-12-18T02:35:45.724Z,-7.01
2022-12-18T02:38:17.249Z,-7.03
2022-12-18T02:40:48.762Z,-7.07
2022-12-18T02:43:20.524Z,-7.00
2022-12-18T02:45:52.098Z,-7.04
2022-12-18T02:48:23.973Z,-7.10
2022-12-18T02:50:55.462Z,-7.22
2022-12-18T02:53:27.304Z,-6.99
2022-12-18T02:55:58.870Z,-7.14
2022-12-18T02:58:30.846Z,-7.26
2022-12-18T03:01:02.476Z,-7.13
2022-12-18T03:03:34.430Z,-7.08
2022-12-18T03:06:05.975Z,-6.94
2022-12-18T03:08:37.842Z,-7.02
2022-12-18T03:11:09.353Z,-6.97
2022-12-18T03:13:41.617Z,-6.88
2022-12-18T03:16:13.527Z,-6.87
2022-12-18T03:18:45.389Z,-6.77
2022-12-18T03:21:16.943Z,-6.83
2022-12-18T03:23:48.795Z,-6.95
2022-12-18T03:26:20.307Z,-6.78
2022-12-18T03:28:52.146Z,-6.82
2022-12-18T03:31:23.751Z,-6.77
2022-12-18T03:33:55.559Z,-6.82
2022-12-18T03:36:27.250Z,-6.89
2022-12-18T03:38:59.145Z,-6.89
2022-12-18T03:41:30.660Z,-6.95
2022-12-18T03:44:02.568Z,-6.85
2022-12-18T03:46:34.094Z,-6.87
2022-12-18T03:49:06.015Z,-6.84
2022-12-18T03:51:37.550Z,-7.11
2022-12-18T03:54:09.557Z,-7.12
2022-12-18T03:56:41.144Z,-7.02
2022-12-18T03:59:13.092Z,-7.02
2022-12-18T04:01:44.970Z,-6.91
2022-12-18T04:04:17.056Z,-7.08
2022-12-18T04:06:48.616Z,-7.13
2022-12-18T04:09:20.483Z,-7.23
2022-12-18T04:11:52.409Z,-7.20
2022-12-18T04:14:23.986Z,-7.25
2022-12-18T04:16:55.838Z,-7.18
2022-12-18T04:19:27.351Z,-7.12
2022-12-18T04:21:59.238Z,-6.91
2022-12-18T04:24:30.812Z,-6.98
2022-12-18T04:27:02.361Z,-6.97
2022-12-18T04:29:33.873Z,-6.90
2022-12-18T04:32:05.556Z,-7.15
2022-12-18T04:34:37.078Z,-7.16
2022-12-18T04:37:09.582Z,-7.26
2022-12-18T04:39:41.086Z,-7.40
2022-12-18T04:42:12.935Z,-7.29
2022-12-18T04:44:44.449Z,-7.37
2022-12-18T04:47:16.146Z,-7.42
2022-12-18T04:49:47.648Z,-7.48
2022-12-18T04:52:19.476Z,-7.32
2022-12-18T04:54:51.000Z,-7.17
2022-12-18T04:57:22.752Z,-7.33
2022-12-18T04:59:54.251Z,-7.33
2022-12-18T05:02:26.161Z,-7.24
2022-12-18T05:04:57.774Z,-7.27
2022-12-18T05:07:29.635Z,-7.06
2022-12-18T05:10:01.164Z,-7.10
2022-12-18T05:12:33.028Z,-7.16
2022-12-18T05:15:04.525Z,-7.11
2022-12-18T05:17:36.390Z,-7.15
2022-12-18T05:20:07.939Z,-7.08
2022-12-18T05:22:39.786Z,-7.05
2022-12-18T05:25:11.290Z,-7.14
2022-12-18T05:27:43.356Z,-7.18
2022-12-18T05:30:14.879Z,-7.15
2022-12-18T05:32:46.641Z,-7.19
2022-12-18T05:35:18.147Z,-7.19
2022-12-18T05:37:49.941Z,-7.18
2022-12-18T05:40:21.480Z,-6.98
2022-12-18T05:42:53.368Z,-6.90
2022-12-18T05:45:24.919Z,-6.86
2022-12-18T05:47:56.856Z,-6.80
2022-12-18T05:50:28.656Z,-6.88
2022-12-18T05:53:00.620Z,-6.94
2022-12-18T05:55:32.101Z,-6.99
2022-12-18T05:58:03.972Z,-6.84
2022-12-18T06:00:35.897Z,-6.80
2022-12-18T06:03:07.975Z,-6.86
2022-12-18T06:05:39.634Z,-6.94
2022-12-18T06:08:11.488Z,-6.89
2022-12-18T06:10:43.050Z,-6.89
2022-12-18T06:13:14.960Z,-6.82
2022-12-18T06:15:46.511Z,-6.85
2022-12-18T06:18:18.417Z,-7.09
2022-12-18T06:20:49.939Z,-7.09
2022-12-18T06:23:21.697Z,-7.02
2022-12-18T06:25:53.280Z,-7.08
2022-12-18T06:28:25.344Z,-7.01
2022-12-18T06:30:56.860Z,-6.98
2022-12-18T06:33:29.413Z,-6.93
2022-12-18T06:36:01.368Z,-6.82
2022-12-18T06:38:33.303Z,-6.77
2022-12-18T06:41:04.807Z,-6.75
2022-12-18T06:43:37.334Z,-6.66
2022-12-18T06:46:09.250Z,-6.73
2022-12-18T06:48:41.408Z,-6.82
2022-12-18T06:51:12.963Z,-6.79
2022-12-18T06:53:44.999Z,-6.85
2022-12-18T06:56:16.521Z,-6.96
2022-12-18T06:58:48.481Z,-6.79
2022-12-18T07:01:20.174Z,-6.71
2022-12-18T07:03:52.525Z,-6.73
2022-12-18T07:06:24.027Z,-6.71
2022-12-18T07:08:55.687Z,-6.79
2022-12-18T07:11:27.229Z,-6.61
2022-12-18T07:13:59.240Z,-6.64
2022-12-18T07:16:30.849Z,-6.71
2022-12-18T07:19:02.650Z,-6.75
2022-12-18T07:21:34.197Z,-6.77
2022-12-18T07:24:06.058Z,-6.88
2022-12-18T07:26:37.559Z,-6.92
2022-12-18T07:29:09.471Z,-6.83
2022-12-18T07:31:41.075Z,-6.72
2022-12-18T07:34:12.808Z,-6.63
2022-12-18T07:36:44.374Z,-6.67
2022-12-18T07:39:16.337Z,-6.58
2022-12-18T07:42:07.888Z,-6.53
2022-12-18T07:44:39.883Z,-6.49
2022-12-18T07:47:12.327Z,-6.32
2022-12-18T07:49:44.037Z,-6.37
2022-12-18T07:52:15.630Z,-6.43
2022-12-18T07:54:50.118Z,-6.46
2022-12-18T07:57:48.826Z,-6.43
2022-12-18T08:00:14.675Z,-6.29
2022-12-18T08:02:46.264Z,-6.26
2022-12-18T08:05:18.230Z,-6.38
2022-12-18T08:07:49.753Z,-6.31
2022-12-18T08:10:21.622Z,-6.18
2022-12-18T08:12:53.717Z,-6.06
2022-12-18T08:15:25.219Z,-6.15
2022-12-18T08:17:57.135Z,-6.22
2022-12-18T08:20:28.652Z,-6.17
2022-12-18T08:23:00.525Z,-6.34
2022-12-18T08:25:32.017Z,-6.37
2022-12-18T08:28:04.003Z,-6.28
2022-12-18T08:30:35.574Z,-6.19
2022-12-18T08:33:07.785Z,-6.10
2022-12-18T08:35:45.462Z,-6.02
2022-12-18T08:38:17.777Z,-5.85
2022-12-18T08:40:49.416Z,-6.10
2022-12-18T08:43:40.295Z,-6.12
2022-12-18T08:46:12.254Z,-6.16
2022-12-18T08:48:43.817Z,-6.05
2022-12-18T08:51:15.330Z,-6.23
2022-12-18T08:53:47.372Z,-6.14
2022-12-18T08:56:18.972Z,-6.13
2022-12-18T08:58:50.755Z,-6.11
2022-12-18T09:01:22.341Z,-5.83
2022-12-18T09:03:54.284Z,-5.77
2022-12-18T09:06:27.467Z,-5.78
2022-12-18T09:08:59.000Z,-5.71
2022-12-18T09:11:31.467Z,-5.86
2022-12-18T09:14:03.332Z,-5.89
2022-12-18T09:16:36.013Z,-5.71
2022-12-18T09:19:07.934Z,-5.59
2022-12-18T09:21:47.781Z,-5.61
2022-12-18T09:24:20.218Z,-5.68
2022-12-18T09:26:57.411Z,-5.57
2022-12-18T09:29:29.951Z,-5.51
2022-12-18T09:32:01.518Z,-5.67
2022-12-18T09:34:33.777Z,-5.77
2022-12-18T09:37:05.266Z,-5.50
2022-12-18T09:39:37.081Z,-5.64
2022-12-18T09:42:08.658Z,-5.61
2022-12-18T09:44:44.938Z,-8.06
2022-12-18T09:47:17.200Z,-5.56
2022-12-18T09:49:49.045Z,-5.58
2022-12-18T09:52:20.554Z,-5.49
2022-12-18T09:54:52.754Z,-5.33
2022-12-18T09:57:24.318Z,-5.29
2022-12-18T09:59:55.876Z,-5.41
2022-12-18T10:02:27.626Z,-5.32
2022-12-18T10:04:59.682Z,-5.08
2022-12-18T10:07:31.352Z,-5.09
2022-12-18T10:10:03.180Z,-4.96
2022-12-18T10:12:34.777Z,-4.89
2022-12-18T10:15:06.735Z,-5.07
2022-12-18T10:17:38.280Z,-5.09
2022-12-18T10:20:10.067Z,-4.87
2022-12-18T10:22:41.889Z,-4.91
2022-12-18T10:25:13.844Z,-4.85
2022-12-18T10:27:45.398Z,-4.79
2022-12-18T10:30:17.283Z,-4.82
2022-12-18T10:32:48.787Z,-4.77
2022-12-18T10:35:20.353Z,-4.50
2022-12-18T10:37:51.859Z,-4.73
2022-12-18T10:40:24.501Z,-4.48
2022-12-18T10:42:55.994Z,-4.30
2022-12-18T10:45:27.803Z,-4.23
2022-12-18T10:47:59.307Z,-4.22
2022-12-18T10:50:54.029Z,-4.22
2022-12-18T10:53:22.768Z,-4.34
2022-12-18T10:55:54.781Z,-4.20
2022-12-18T10:58:26.977Z,-4.24
2022-12-18T11:00:59.038Z,-4.33
2022-12-18T11:03:30.591Z,-4.39
2022-12-18T11:06:02.160Z,-4.47
2022-12-18T11:08:33.688Z,-4.36
2022-12-18T11:11:05.536Z,-4.39
2022-12-18T11:13:38.640Z,-4.36
2022-12-18T11:16:12.061Z,-4.49
2022-12-18T11:18:44.852Z,-4.36
2022-12-18T11:21:18.296Z,-4.30
2022-12-18T11:23:51.703Z,-4.18
2022-12-18T11:26:25.197Z,-4.18
2022-12-18T11:28:58.408Z,-4.01
2022-12-18T11:31:33.239Z,-4.30
2022-12-18T11:36:59.579Z,-4.07
2022-12-18T11:39:33.136Z,-4.04
2022-12-18T11:42:11.945Z,-3.99
2022-12-18T11:44:45.099Z,-4.01
2022-12-18T11:47:18.173Z,-4.16
2022-12-18T11:49:51.172Z,-4.28
2022-12-18T11:52:24.118Z,-4.50
2022-12-18T11:54:57.532Z,-4.46
2022-12-18T11:57:30.580Z,-4.55
2022-12-18T12:00:02.409Z,-4.37
2022-12-18T12:02:34.044Z,-4.46
2022-12-18T12:05:06.137Z,-4.36
2022-12-18T12:07:37.646Z,-4.29
2022-12-18T12:10:09.524Z,-4.20
2022-12-18T12:12:49.168Z,-4.08
2022-12-18T12:15:21.300Z,-4.22
2022-12-18T12:17:52.810Z,-4.08
2022-12-18T12:20:24.669Z,-3.92
2022-12-18T12:22:56.206Z,-3.87
2022-12-18T12:25:28.268Z,-3.89
2022-12-18T12:27:59.859Z,-3.79
2022-12-18T12:30:31.713Z,-3.93
2022-12-18T12:33:03.324Z,-3.85
2022-12-18T12:35:35.098Z,-3.92
2022-12-18T12:38:06.723Z,-3.92
2022-12-18T12:40:52.524Z,-4.02
2022-12-18T12:43:26.663Z,-4.15
2022-12-18T12:45:58.643Z,-4.26
2022-12-18T12:48:30.200Z,-4.04
2022-12-18T12:51:02.528Z,-4.19
2022-12-18T12:53:34.043Z,-3.97
2022-12-18T12:56:06.338Z,-3.88
2022-12-18T12:58:37.830Z,-3.93
2022-12-18T13:01:09.716Z,-3.91
2022-12-18T13:03:41.672Z,-3.97
2022-12-18T13:06:13.652Z,-4.01
2022-12-18T13:08:45.152Z,-3.94
2022-12-18T13:11:35.866Z,-3.97
2022-12-18T13:14:07.811Z,-3.94
2022-12-18T13:16:39.630Z,-4.09
2022-12-18T13:19:11.138Z,-4.04
2022-12-18T13:21:42.918Z,-3.99
2022-12-18T13:24:14.464Z,-3.96
2022-12-18T13:26:46.411Z,-3.95
2022-12-18T13:29:17.896Z,-4.01
2022-12-18T13:31:49.761Z,-4.04
2022-12-18T13:34:29.513Z,-4.19
2022-12-18T13:37:01.545Z,-4.13
2022-12-18T13:39:35.325Z,-4.23
2022-12-18T13:42:08.814Z,-4.37
2022-12-18T13:44:43.221Z,-4.51
2022-12-18T13:47:14.892Z,-4.43
2022-12-18T13:49:48.589Z,-5.64
2022-12-18T13:52:20.438Z,-4.30
2022-12-18T13:54:51.925Z,-4.32
2022-12-18T13:57:23.959Z,-4.32
2022-12-18T13:59:55.476Z,-4.52
2022-12-18T14:02:27.777Z,-4.50
2022-12-18T14:04:59.388Z,-4.54
2022-12-18T14:07:34.608Z,-4.59
2022-12-18T14:10:42.599Z,-4.58
2022-12-18T14:13:04.763Z,-4.63
2022-12-18T14:15:37.752Z,-4.60
2022-12-18T14:18:10.680Z,-4.38
2022-12-18T14:20:45.391Z,-4.36
2022-12-18T14:23:19.301Z,-4.46
2022-12-18T14:25:50.999Z,-4.48
2022-12-18T14:28:26.970Z,-4.59
2022-12-18T14:30:58.627Z,-4.56
2022-12-18T14:33:30.144Z,-4.72
2022-12-18T14:36:01.743Z,-4.64
2022-12-18T14:38:33.326Z,-4.60
2022-12-18T14:41:05.209Z,-4.52
2022-12-18T14:43:36.833Z,-4.65
2022-12-18T14:46:08.858Z,-4.76
2022-12-18T14:48:40.606Z,-4.71
2022-12-18T14:51:12.153Z,-4.66
2022-12-18T14:53:47.599Z,-4.68
2022-12-18T14:56:22.582Z,-4.64
2022-12-18T14:58:54.084Z,-4.81
2022-12-18T15:01:26.011Z,-4.70
2022-12-18T15:03:57.652Z,-4.71
2022-12-18T15:06:29.548Z,-4.77
2022-12-18T15:09:01.069Z,-4.96
2022-12-18T15:11:33.277Z,-4.93
2022-12-18T15:14:04.827Z,-5.05
2022-12-18T15:16:37.528Z,-5.11
2022-12-18T15:19:09.096Z,-4.92
2022-12-18T15:21:40.983Z,-4.90
2022-12-18T15:24:12.466Z,-4.93
2022-12-18T15:26:43.991Z,-4.86
2022-12-18T15:29:15.953Z,-4.88
2022-12-18T15:31:47.487Z,-4.77
2022-12-18T15:34:18.981Z,-4.78
2022-12-18T15:36:50.678Z,-4.75
2022-12-18T15:39:22.163Z,-4.67
2022-12-18T15:42:12.682Z,-4.67
2022-12-18T15:44:44.229Z,-4.74
2022-12-18T15:47:15.869Z,-4.82
2022-12-18T15:49:47.445Z,-4.85
2022-12-18T15:52:27.288Z,-4.75
2022-12-18T15:55:17.394Z,-4.88
2022-12-18T15:57:49.400Z,-5.05
2022-12-18T16:00:20.897Z,-5.01
2022-12-18T16:02:52.701Z,-4.90
2022-12-18T16:05:24.309Z,-4.89
2022-12-18T16:07:55.831Z,-4.92
2022-12-18T16:10:27.378Z,-4.97
2022-12-18T16:12:59.263Z,-4.89
2022-12-18T16:15:30.978Z,-4.85
2022-12-18T16:18:02.764Z,-4.98
2022-12-18T16:20:34.552Z,-4.92
2022-12-18T16:23:06.428Z,-5.03
2022-12-18T16:25:37.955Z,-5.03
2022-12-18T16:28:09.776Z,-4.97
2022-12-18T16:30:41.330Z,-4.91
2022-12-18T16:33:13.032Z,-4.86
2022-12-18T16:35:44.675Z,-4.87
2022-12-18T16:38:16.625Z,-4.93
2022-12-18T16:41:07.053Z,-4.89
2022-12-18T16:43:39.365Z,-4.99
2022-12-18T16:46:11.096Z,-4.97
2022-12-18T16:48:42.952Z,-4.91
2022-12-18T16:51:14.450Z,-5.04
2022-12-18T16:53:46.034Z,-5.17
2022-12-18T16:56:17.898Z,-5.17
2022-12-18T16:58:49.600Z,-5.22
2022-12-18T17:01:21.406Z,-5.25
2022-12-18T17:03:53.624Z,-5.23
2022-12-18T17:06:25.172Z,-5.30
2022-12-18T17:08:57.511Z,-5.36
2022-12-18T17:11:29.061Z,-5.39
2022-12-18T17:14:00.746Z,-5.40
2022-12-18T17:16:33.592Z,-5.39
2022-12-18T17:19:06.206Z,-5.41
2022-12-18T17:21:38.073Z,-5.46
2022-12-18T17:24:11.011Z,-5.48
2022-12-18T17:26:43.092Z,-5.54
2022-12-18T17:29:14.603Z,-5.53
2022-12-18T17:31:46.485Z,-5.53
2022-12-18T17:34:18.064Z,-5.55
2022-12-18T17:36:49.963Z,-5.52
2022-12-18T17:39:21.537Z,-5.50
2022-12-18T17:41:53.455Z,-5.49
2022-12-18T17:44:25.017Z,-5.53
2022-12-18T17:46:56.861Z,-5.59
2022-12-18T17:49:28.376Z,-5.53
2022-12-18T17:52:00.265Z,-5.49
2022-12-18T17:54:31.795Z,-5.53
2022-12-18T17:57:03.891Z,-5.51
2022-12-18T17:59:35.450Z,-5.51
2022-12-18T18:02:07.535Z,-5.59
2022-12-18T18:04:40.288Z,-5.60
2022-12-18T18:07:12.181Z,-5.61
2022-12-18T18:09:43.714Z,-5.59
2022-12-18T18:12:34.480Z,-5.61
2022-12-18T18:15:06.065Z,-5.69
2022-12-18T18:17:37.946Z,-5.72
2022-12-18T18:20:09.449Z,-5.72
2022-12-18T18:22:41.400Z,-5.67
2022-12-18T18:25:12.965Z,-5.69
2022-12-18T18:27:45.714Z,-5.71
2022-12-18T18:30:18.920Z,-5.76
2022-12-18T18:32:52.810Z,-5.80
2022-12-18T18:35:53.021Z,-5.81
2022-12-18T18:38:16.576Z,-5.82
2022-12-18T18:40:48.127Z,-5.84
2022-12-18T18:43:19.946Z,-5.83
2022-12-18T18:45:51.546Z,-5.86
2022-12-18T18:48:23.456Z,-5.86
2022-12-18T18:50:56.686Z,-5.86
2022-12-18T18:53:28.545Z,-5.94
2022-12-18T18:56:45.480Z,-5.93
2022-12-18T18:58:54.650Z,-5.93
2022-12-18T19:01:26.318Z,-5.93
2022-12-18T19:03:58.230Z,-5.97
2022-12-18T19:06:29.887Z,-5.99
2022-12-18T19:09:03.087Z,-5.94
2022-12-18T19:11:53.388Z,-5.95
2022-12-18T19:14:25.344Z,-5.95
2022-12-18T19:16:56.890Z,-5.98
2022-12-18T19:19:30.089Z,-5.97
2022-12-18T19:22:01.942Z,-6.00
2022-12-18T19:24:33.439Z,-5.96
2022-12-18T19:27:05.441Z,-5.97
2022-12-18T19:29:37.881Z,-5.97
2022-12-18T19:32:10.712Z,-5.93
2022-12-18T19:34:44.048Z,-5.90
2022-12-18T19:37:19.030Z,-5.88
2022-12-18T19:39:50.710Z,-5.83
2022-12-18T19:42:28.060Z,-5.86
2022-12-18T19:45:03.444Z,-5.86
2022-12-18T19:47:35.316Z,-5.85
2022-12-18T19:50:06.896Z,-5.84
2022-12-18T19:52:38.750Z,-5.87
2022-12-18T19:55:10.648Z,-5.84
2022-12-18T19:57:42.507Z,-5.82
2022-12-18T20:00:18.524Z,-5.82
2022-12-18T20:02:50.843Z,-5.86
2022-12-18T20:05:25.211Z,-5.85
2022-12-18T20:07:57.077Z,-5.85
2022-12-18T20:10:29.334Z,-5.86
2022-12-18T20:13:00.997Z,-5.81
2022-12-18T20:15:32.761Z,-5.86
2022-12-18T20:18:04.622Z,-5.82
2022-12-18T20:20:36.306Z,-5.80
2022-12-18T20:23:08.514Z,-5.82
2022-12-18T20:25:40.185Z,-5.88
2022-12-18T20:28:12.258Z,-5.89
2022-12-18T20:30:43.767Z,-5.84
2022-12-18T20:33:15.629Z,-5.94
2022-12-18T20:35:47.148Z,-5.95
2022-12-18T20:38:18.978Z,-5.95
2022-12-18T20:40:51.911Z,-5.91
2022-12-18T20:43:23.821Z,-5.90
2022-12-18T20:45:55.354Z,-5.90
2022-12-18T20:48:27.178Z,-5.89
2022-12-18T20:50:59.040Z,-5.85
2022-12-18T20:53:33.193Z,-5.87
2022-12-18T20:56:04.718Z,-5.82
2022-12-18T20:58:36.302Z,-5.87
2022-12-18T21:01:07.948Z,-5.73
2022-12-18T21:03:40.243Z,-5.80
2022-12-18T21:06:11.779Z,-5.73
2022-12-18T21:08:43.724Z,-5.78
2022-12-18T21:11:35.231Z,-5.84
2022-12-18T21:14:06.784Z,-5.86
2022-12-18T21:16:38.367Z,-5.89
2022-12-18T21:19:10.258Z,-5.90
2022-12-18T21:21:42.593Z,-5.83
2022-12-18T21:24:14.485Z,-5.82
2022-12-18T21:26:46.357Z,-5.87
2022-12-18T21:29:18.632Z,-5.89
2022-12-18T21:31:50.236Z,-5.93
2022-12-18T21:34:22.029Z,-5.93
2022-12-18T21:36:53.551Z,-5.91
2022-12-18T21:39:25.425Z,-5.92
2022-12-18T21:42:16.047Z,-5.88
2022-12-18T21:44:48.107Z,-5.89
2022-12-18T21:47:22.560Z,-5.87
2022-12-18T21:49:55.230Z,-5.88
2022-12-18T21:52:31.512Z,-5.84
2022-12-18T21:55:08.994Z,-5.83
2022-12-18T21:57:41.314Z,-5.84
2022-12-18T22:00:18.978Z,-5.86
2022-12-18T22:03:03.426Z,-5.83
2022-12-18T22:05:42.846Z,-5.81
2022-12-18T22:08:14.638Z,-5.84
2022-12-18T22:10:46.379Z,-5.80
2022-12-18T22:13:18.281Z,-5.78
2022-12-18T22:15:49.994Z,-5.81
2022-12-18T22:18:21.935Z,-5.81
2022-12-18T22:20:53.431Z,-5.81
2022-12-18T22:23:25.190Z,-5.81
2022-12-18T22:25:56.803Z,-5.73
2022-12-18T22:28:47.297Z,-5.77
2022-12-18T22:31:18.885Z,-5.81
2022-12-18T22:33:51.414Z,-5.73
2022-12-18T22:36:22.895Z,-5.71
2022-12-18T22:38:54.929Z,-5.76
2022-12-18T22:41:26.432Z,-5.72
2022-12-18T22:44:00.869Z,-5.80
2022-12-18T22:46:32.419Z,-5.86
2022-12-18T22:49:04.205Z,-5.87
2022-12-18T22:51:35.707Z,-5.87
2022-12-18T22:54:07.456Z,-5.82
2022-12-18T22:56:38.974Z,-5.82
2022-12-18T22:59:10.563Z,-5.83
2022-12-18T23:01:42.127Z,-5.86
2022-12-18T23:04:15.113Z,-5.89
2022-12-18T23:06:46.697Z,-5.92
2022-12-18T23:09:18.617Z,-5.90
2022-12-18T23:11:50.802Z,-5.87
2022-12-18T23:14:22.654Z,-5.83
2022-12-18T23:16:54.145Z,-5.88
2022-12-18T23:19:25.983Z,-5.88
2022-12-18T23:21:58.774Z,-5.90
2022-12-18T23:24:30.855Z,-5.89
2022-12-18T23:27:04.843Z,-5.86
2022-12-18T23:29:43.236Z,-5.85
2022-12-18T23:32:16.763Z,-5.86
2022-12-18T23:34:48.571Z,-5.82
2022-12-18T23:37:49.911Z,-5.86
2022-12-18T23:40:12.007Z,-5.84
2022-12-18T23:42:43.513Z,-5.83
2022-12-18T23:45:17.651Z,-5.82
2022-12-18T23:47:51.141Z,-5.79
2022-12-18T23:50:28.669Z,-5.79
2022-12-18T23:53:05.559Z,-5.78
2022-12-18T23:55:37.647Z,-5.79
2022-12-18T23:58:09.189Z,-5.78
